Time;durP1;ratioP1;P1;durP2;ratioP2;P2;SDS_P1;SDS_P2;PMS_P1;PMS_P2;Temp;Humidity;BMP_temperature;BMP_pressure;BME280_temperature;BME280_humidity;BME280_pressure;Samples;Min_cycle;Max_cycle;Signal;HPM_P1;HPM_P2
2023/04/19 00:00:39;;;;;;;18.83;13.13;;;9.70;99.90;;;;;;5108929;28;19941;-56
2023/04/19 00:03:06;;;;;;;14.57;12.25;;;9.60;99.90;;;;;;5108183;28;20119;-54
2023/04/19 00:05:31;;;;;;;16.20;13.32;;;9.70;99.90;;;;;;5091632;28;20075;-57
2023/04/19 00:07:57;;;;;;;14.35;12.00;;;9.60;99.90;;;;;;5090846;28;20080;-56
2023/04/19 00:10:23;;;;;;;18.92;12.27;;;9.70;99.90;;;;;;5107694;28;20077;-54
2023/04/19 00:12:48;;;;;;;14.73;11.23;;;9.70;99.90;;;;;;5093281;28;20044;-56
2023/04/19 00:15:14;;;;;;;17.13;11.60;;;9.60;99.90;;;;;;5109862;28;20035;-57
2023/04/19 00:17:40;;;;;;;14.05;11.85;;;9.70;99.90;;;;;;5110793;28;20288;-56
2023/04/19 00:20:07;;;;;;;20.80;12.15;;;9.60;99.90;;;;;;5098172;28;20111;-56
2023/04/19 00:22:33;;;;;;;15.48;12.43;;;9.60;99.90;;;;;;5093343;28;20036;-57
2023/04/19 00:24:59;;;;;;;18.88;12.73;;;9.60;99.90;;;;;;5097313;28;20036;-57
2023/04/19 00:27:25;;;;;;;21.38;12.93;;;9.60;99.90;;;;;;5093347;28;20036;-57
2023/04/19 00:29:51;;;;;;;15.52;12.45;;;9.60;99.90;;;;;;5094729;28;20051;-56
2023/04/19 00:32:16;;;;;;;16.17;11.48;;;9.60;99.90;;;;;;5093979;28;20128;-56
2023/04/19 00:34:42;;;;;;;14.83;11.10;;;9.60;99.90;;;;;;5111035;28;20044;-55
2023/04/19 00:37:08;;;;;;;14.40;11.60;;;9.60;99.90;;;;;;5109259;28;20383;-57
2023/04/19 00:39:34;;;;;;;22.23;12.00;;;9.60;99.90;;;;;;5101832;28;20038;-56
2023/04/19 00:42:00;;;;;;;13.80;12.00;;;9.60;99.90;;;;;;5103793;28;20508;-56
2023/04/19 00:44:25;;;;;;;16.45;11.32;;;9.60;99.90;;;;;;5094899;28;20036;-57
2023/04/19 00:46:52;;;;;;;15.23;10.98;;;9.60;99.90;;;;;;5097443;28;20027;-57
2023/04/19 00:49:19;;;;;;;16.45;11.57;;;9.60;99.90;;;;;;5096233;28;20511;-57
2023/04/19 00:51:45;;;;;;;15.50;11.13;;;9.60;99.90;;;;;;5112535;28;20028;-57
2023/04/19 00:54:12;;;;;;;15.18;10.85;;;9.60;99.90;;;;;;5110370;28;20061;-57
2023/04/19 00:56:39;;;;;;;14.05;10.73;;;9.60;99.90;;;;;;5112316;28;20043;-57
2023/04/19 00:59:05;;;;;;;12.85;11.02;;;9.60;99.90;;;;;;5107351;28;20040;-55
2023/04/19 01:01:31;;;;;;;12.82;10.40;;;9.60;99.90;;;;;;5092297;28;20039;-56
2023/04/19 01:03:57;;;;;;;14.32;10.23;;;9.60;99.90;;;;;;5092651;28;20039;-55
2023/04/19 01:06:26;;;;;;;10.85;9.15;;;9.60;99.90;;;;;;5112323;28;20131;-57
2023/04/19 01:08:52;;;;;;;13.57;10.27;;;9.60;99.90;;;;;;5099336;28;20139;-57
2023/04/19 01:11:18;;;;;;;12.65;9.45;;;9.60;99.90;;;;;;5091799;28;20101;-59
2023/04/19 01:13:43;;;;;;;9.80;8.43;;;9.60;99.90;;;;;;5109286;28;20036;-57
2023/04/19 01:16:09;;;;;;;12.63;9.10;;;9.60;99.90;;;;;;5093463;28;20036;-56
2023/04/19 01:18:36;;;;;;;14.40;9.73;;;9.60;99.90;;;;;;5097848;28;20031;-54
2023/04/19 01:21:02;;;;;;;13.05;9.85;;;9.60;99.90;;;;;;5110234;28;20075;-57
2023/04/19 01:23:29;;;;;;;10.07;9.05;;;9.60;99.90;;;;;;5110462;28;20408;-56
2023/04/19 01:25:54;;;;;;;;;;;9.60;99.90;;;;;;5097603;28;20043;-56
2023/04/19 01:28:20;;;;;;;11.95;9.02;;;9.60;99.90;;;;;;5090571;28;19942;-57
2023/04/19 01:30:46;;;;;;;13.68;8.00;;;9.60;99.90;;;;;;5093340;28;20047;-55
2023/04/19 01:33:11;;;;;;;10.70;8.40;;;9.60;99.90;;;;;;5090145;28;20040;-57
2023/04/19 01:35:37;;;;;;;10.63;8.47;;;9.60;99.90;;;;;;5101699;28;20297;-56
2023/04/19 01:38:04;;;;;;;13.33;8.77;;;9.60;99.90;;;;;;5096749;28;20050;-57
2023/04/19 01:40:30;;;;;;;9.98;7.88;;;9.60;99.90;;;;;;5091473;28;20050;-55
2023/04/19 01:42:55;;;;;;;10.85;7.97;;;9.50;99.90;;;;;;5091455;28;20035;-57
2023/04/19 01:45:24;;;;;;;9.83;7.83;;;9.50;99.90;;;;;;5097656;28;20036;-57
2023/04/19 01:47:50;;;;;;;7.72;6.88;;;9.50;99.90;;;;;;5110481;28;20289;-57
2023/04/19 01:50:16;;;;;;;9.00;7.28;;;9.50;99.90;;;;;;5100987;28;20127;-56
2023/04/19 01:52:41;;;;;;;8.40;7.03;;;9.50;99.90;;;;;;5104802;28;20114;-56
2023/04/19 01:55:07;;;;;;;7.13;6.03;;;9.50;99.90;;;;;;5106949;28;20294;-57
2023/04/19 01:57:33;;;;;;;10.05;7.65;;;9.50;99.90;;;;;;5105531;28;20036;-57
2023/04/19 01:59:59;;;;;;;9.38;6.97;;;9.50;99.90;;;;;;5100339;28;20142;-57
2023/04/19 02:02:25;;;;;;;9.68;7.13;;;9.50;99.90;;;;;;5091007;28;20115;-55
2023/04/19 02:04:51;;;;;;;7.50;6.35;;;9.40;99.90;;;;;;5090633;28;20543;-56
2023/04/19 02:07:16;;;;;;;9.43;7.07;;;9.40;99.90;;;;;;5111095;28;20432;-57
2023/04/19 02:09:42;;;;;;;9.33;7.07;;;9.40;99.90;;;;;;5107696;28;20273;-54
2023/04/19 02:12:08;;;;;;;8.27;6.57;;;9.40;99.90;;;;;;5105874;28;20046;-57
2023/04/19 02:14:34;;;;;;;;;;;9.40;99.90;;;;;;5097996;28;20518;-56
2023/04/19 02:16:59;;;;;;;9.55;6.65;;;9.40;99.90;;;;;;5095259;28;19916;-57
2023/04/19 02:19:25;;;;;;;14.57;7.32;;;9.40;99.90;;;;;;5106473;28;20035;-57
2023/04/19 02:21:52;;;;;;;7.87;6.33;;;9.40;99.90;;;;;;5095871;28;20042;-57
2023/04/19 02:24:18;;;;;;;9.45;6.13;;;9.30;99.90;;;;;;5108380;28;20035;-57
2023/04/19 02:26:43;;;;;;;10.60;6.90;;;9.30;99.90;;;;;;5096382;28;20032;-56
2023/04/19 02:29:09;;;;;;;8.33;6.10;;;9.30;99.90;;;;;;5081063;28;20105;-57
2023/04/19 02:31:35;;;;;;;11.90;6.53;;;9.30;99.90;;;;;;5100872;28;20308;-57
2023/04/19 02:34:01;;;;;;;12.60;7.72;;;9.30;99.90;;;;;;5111990;28;20085;-56
2023/04/19 02:36:26;;;;;;;15.50;7.57;;;9.30;99.90;;;;;;5100605;28;20068;-56
2023/04/19 02:38:52;;;;;;;9.90;6.77;;;9.30;99.90;;;;;;5089582;28;20044;-57
2023/04/19 02:41:18;;;;;;;10.60;6.97;;;9.30;99.90;;;;;;5095963;28;20180;-57
2023/04/19 02:43:43;;;;;;;10.48;6.90;;;9.30;99.90;;;;;;5106219;28;20118;-55
2023/04/19 02:46:09;;;;;;;9.17;6.60;;;9.30;99.90;;;;;;5104352;28;20459;-55
2023/04/19 02:48:35;;;;;;;11.52;7.53;;;9.30;99.90;;;;;;5108499;28;20040;-55
2023/04/19 02:51:00;;;;;;;15.25;7.80;;;9.20;99.90;;;;;;5098465;28;20024;-54
2023/04/19 02:53:26;;;;;;;11.63;7.57;;;9.20;99.90;;;;;;5108444;28;20044;-57
2023/04/19 02:55:51;;;;;;;12.40;7.03;;;9.20;99.90;;;;;;5108769;28;20293;-56
2023/04/19 02:58:17;;;;;;;9.33;6.50;;;9.20;99.90;;;;;;5088941;28;20284;-56
2023/04/19 03:00:43;;;;;;;7.68;6.75;;;9.20;99.90;;;;;;5090385;28;20070;-57
2023/04/19 03:03:08;;;;;;;9.07;5.70;;;9.20;99.90;;;;;;5091055;28;20489;-53
2023/04/19 03:05:34;;;;;;;8.37;5.67;;;9.10;99.90;;;;;;5101590;28;20127;-57
2023/04/19 03:08:00;;;;;;;8.40;6.60;;;9.10;99.90;;;;;;5091804;28;20694;-56
2023/04/19 03:10:25;;;;;;;10.73;5.67;;;9.10;99.90;;;;;;5089834;28;20285;-57
2023/04/19 03:12:51;;;;;;;6.87;4.83;;;9.10;99.90;;;;;;5102697;28;20028;-56
2023/04/19 03:15:17;;;;;;;9.03;5.50;;;9.10;99.90;;;;;;5110126;28;20032;-53
2023/04/19 03:17:43;;;;;;;12.27;5.60;;;9.10;99.90;;;;;;5096019;28;20286;-57
2023/04/19 03:20:10;;;;;;;6.80;5.40;;;9.10;99.90;;;;;;5089143;28;20035;-55
2023/04/19 03:22:36;;;;;;;8.57;5.35;;;9.00;99.90;;;;;;5099267;28;20114;-57
2023/04/19 03:25:03;;;;;;;6.13;5.28;;;9.00;99.90;;;;;;5110038;28;20409;-56
2023/04/19 03:27:28;;;;;;;7.15;5.70;;;9.00;99.90;;;;;;5098984;28;20405;-56
2023/04/19 03:29:55;;;;;;;8.70;6.17;;;9.00;99.90;;;;;;5089019;28;20069;-57
2023/04/19 03:32:20;;;;;;;5.85;4.78;;;8.90;99.90;;;;;;5097665;28;20039;-56
2023/04/19 03:34:46;;;;;;;8.53;5.17;;;8.80;99.90;;;;;;5094997;28;20393;-56
2023/04/19 03:37:12;;;;;;;8.60;4.97;;;8.80;99.90;;;;;;5104173;28;20161;-57
2023/04/19 03:39:37;;;;;;;8.23;5.63;;;8.70;99.90;;;;;;5093452;28;20388;-55
2023/04/19 03:42:03;;;;;;;9.03;5.00;;;8.70;99.90;;;;;;5108658;28;20116;-57
2023/04/19 03:44:32;;;;;;;13.23;5.72;;;8.60;99.90;;;;;;5103467;28;20047;-55
2023/04/19 03:46:58;;;;;;;9.68;5.63;;;8.60;99.90;;;;;;5113952;28;20515;-55
2023/04/19 03:49:23;;;;;;;7.95;5.32;;;8.50;99.90;;;;;;5103854;28;20510;-54
2023/04/19 03:51:49;;;;;;;10.07;5.60;;;8.40;99.90;;;;;;5114079;28;20067;-55
2023/04/19 03:54:15;;;;;;;16.40;5.90;;;8.30;99.90;;;;;;5112247;28;20039;-57
2023/04/19 03:56:41;;;;;;;9.82;5.75;;;8.30;99.90;;;;;;5113092;28;20127;-57
2023/04/19 03:59:06;;;;;;;6.88;5.38;;;8.20;99.90;;;;;;5109603;28;20089;-53
2023/04/19 04:01:32;;;;;;;7.67;5.57;;;8.20;99.90;;;;;;5097894;28;20028;-55
2023/04/19 04:03:57;;;;;;;8.40;5.60;;;8.10;99.90;;;;;;5112528;27;20277;-56
2023/04/19 04:06:23;;;;;;;10.73;5.40;;;8.00;99.90;;;;;;5100249;28;20385;-56
2023/04/19 04:08:49;;;;;;;10.17;5.80;;;8.00;99.90;;;;;;5094143;28;20356;-55
2023/04/19 04:11:14;;;;;;;7.17;6.03;;;7.90;99.90;;;;;;5101402;28;20159;-56
2023/04/19 04:13:40;;;;;;;10.47;6.37;;;7.80;99.90;;;;;;5111104;28;20782;-55
2023/04/19 04:16:05;;;;;;;8.40;6.10;;;7.80;99.90;;;;;;5107645;28;20485;-56
2023/04/19 04:18:31;;;;;;;9.10;6.10;;;7.70;99.90;;;;;;5106058;28;20032;-57
2023/04/19 04:20:56;;;;;;;6.53;5.57;;;7.70;99.90;;;;;;5103719;28;20284;-56
2023/04/19 04:23:24;;;;;;;6.53;5.30;;;7.60;99.90;;;;;;5111754;28;20092;-57
2023/04/19 04:25:59;;;;;;;6.70;5.65;;;7.60;99.90;;;;;;5105280;28;20442;-57
2023/04/19 04:28:26;;;;;;;17.88;6.07;;;7.60;99.90;;;;;;5093511;28;20044;-57
2023/04/19 04:30:52;;;;;;;12.48;6.55;;;7.50;99.90;;;;;;5107589;28;20115;-54
2023/04/19 04:33:18;;;;;;;10.52;5.45;;;7.60;99.90;;;;;;5113119;27;20118;-57
2023/04/19 04:35:43;;;;;;;7.70;5.67;;;7.50;99.90;;;;;;5107616;28;20044;-57
2023/04/19 04:38:09;;;;;;;11.40;5.20;;;7.50;99.90;;;;;;5091722;28;20058;-56
2023/04/19 04:40:35;;;;;;;16.15;6.97;;;7.50;99.90;;;;;;5103178;28;20089;-56
2023/04/19 04:43:03;;;;;;;10.50;6.57;;;7.40;99.90;;;;;;5113353;28;20488;-55
2023/04/19 04:45:29;;;;;;;8.05;5.80;;;7.40;99.90;;;;;;5110894;28;20088;-56
2023/04/19 04:47:54;;;;;;;8.50;5.95;;;7.40;99.90;;;;;;5091748;28;20150;-55
2023/04/19 04:50:20;;;;;;;16.43;6.20;;;7.30;99.90;;;;;;5097859;28;20431;-57
2023/04/19 04:52:46;;;;;;;8.53;5.40;;;7.30;99.90;;;;;;5102278;28;20065;-56
2023/04/19 04:55:11;;;;;;;8.50;6.13;;;7.30;99.90;;;;;;5093159;28;20050;-57
2023/04/19 04:57:37;;;;;;;8.20;6.20;;;7.20;99.90;;;;;;5091808;28;20124;-57
2023/04/19 05:00:05;;;;;;;11.70;5.80;;;7.30;99.90;;;;;;5094138;28;20036;-55
2023/04/19 05:02:31;;;;;;;10.68;6.15;;;7.20;99.90;;;;;;5112471;28;20101;-57
2023/04/19 05:04:57;;;;;;;8.77;6.28;;;7.20;99.90;;;;;;5110929;28;20035;-57
2023/04/19 05:07:22;;;;;;;11.95;5.82;;;7.20;99.90;;;;;;5110829;28;20043;-57
2023/04/19 05:09:48;;;;;;;9.77;6.73;;;7.20;99.90;;;;;;5111506;28;20046;-57
2023/04/19 05:12:14;;;;;;;12.30;7.13;;;7.20;99.90;;;;;;5092318;28;20040;-57
2023/04/19 05:14:39;;;;;;;12.88;5.40;;;7.20;99.90;;;;;;5092133;28;20466;-56
2023/04/19 05:17:05;;;;;;;10.73;5.83;;;7.20;99.90;;;;;;5093015;28;20039;-56
2023/04/19 05:19:30;;;;;;;7.40;5.13;;;7.20;99.90;;;;;;5106051;28;20143;-56
2023/04/19 05:21:56;;;;;;;8.73;5.47;;;7.20;99.90;;;;;;5107426;28;20237;-55
2023/04/19 05:24:21;;;;;;;10.57;5.63;;;7.20;99.90;;;;;;5097266;28;20051;-57
2023/04/19 05:26:47;;;;;;;7.57;5.40;;;7.30;99.90;;;;;;5099111;28;20702;-57
2023/04/19 05:29:13;;;;;;;11.17;6.17;;;7.30;99.90;;;;;;5103389;28;20111;-55
2023/04/19 05:31:38;;;;;;;10.40;6.00;;;7.30;99.90;;;;;;5099863;28;20039;-56
2023/04/19 05:34:04;;;;;;;6.43;5.40;;;7.30;99.90;;;;;;5095741;28;20477;-56
2023/04/19 05:36:31;;;;;;;7.87;5.50;;;7.30;99.90;;;;;;5099549;28;20046;-60
2023/04/19 05:38:56;;;;;;;10.73;5.20;;;7.40;99.90;;;;;;5106342;28;20046;-57
2023/04/19 05:41:22;;;;;;;7.27;4.93;;;7.40;99.90;;;;;;5099769;28;20114;-55
2023/04/19 05:43:48;;;;;;;10.77;5.30;;;7.40;99.90;;;;;;5097021;28;20040;-57
2023/04/19 05:46:13;;;;;;;7.68;4.85;;;7.50;99.90;;;;;;5100340;28;20097;-56
2023/04/19 05:48:39;;;;;;;11.00;5.37;;;7.50;99.90;;;;;;5097698;28;20050;-57
2023/04/19 05:51:05;;;;;;;7.47;4.93;;;7.60;99.90;;;;;;5106703;28;20078;-57
2023/04/19 05:53:30;;;;;;;6.07;4.45;;;7.60;99.90;;;;;;5099342;28;20745;-56
2023/04/19 05:55:56;;;;;;;8.13;4.87;;;7.70;99.90;;;;;;5090931;28;20474;-57
2023/04/19 05:58:22;;;;;;;6.35;3.92;;;7.70;99.90;;;;;;5094820;28;20043;-56
2023/04/19 06:00:48;;;;;;;5.03;3.70;;;7.80;99.90;;;;;;5096065;28;20481;-56
2023/04/19 06:03:14;;;;;;;12.90;4.95;;;7.90;99.90;;;;;;5096629;28;20122;-59
2023/04/19 06:05:39;;;;;;;9.52;4.13;;;7.90;99.90;;;;;;5111034;28;20047;-56
2023/04/19 06:08:06;;;;;;;4.97;3.85;;;8.00;99.90;;;;;;5102782;28;20048;-58
2023/04/19 06:10:31;;;;;;;22.98;5.22;;;8.20;99.90;;;;;;5090354;28;20122;-57
2023/04/19 06:12:57;;;;;;;7.75;3.92;;;8.20;99.90;;;;;;5095335;28;20114;-54
2023/04/19 06:15:24;;;;;;;6.67;4.10;;;8.30;99.90;;;;;;5102354;28;20047;-53
2023/04/19 06:17:50;;;;;;;5.05;3.50;;;8.40;99.90;;;;;;5104347;28;20063;-58
2023/04/19 06:20:16;;;;;;;8.27;3.60;;;8.40;99.90;;;;;;5097650;28;20067;-58
2023/04/19 06:22:43;;;;;;;14.97;4.03;;;8.40;99.90;;;;;;5104815;28;20167;-58
2023/04/19 06:25:09;;;;;;;8.13;3.38;;;8.50;99.90;;;;;;5090006;28;20052;-58
2023/04/19 06:27:35;;;;;;;5.27;3.27;;;8.60;99.90;;;;;;5097925;28;20040;-58
2023/04/19 06:30:00;;;;;;;7.20;3.80;;;8.60;99.90;;;;;;5090041;28;20036;-57
2023/04/19 06:32:26;;;;;;;6.37;3.60;;;8.70;99.90;;;;;;5097897;28;20586;-58
2023/04/19 06:34:51;;;;;;;5.17;3.67;;;8.80;99.90;;;;;;5089711;28;20048;-59
2023/04/19 06:37:17;;;;;;;13.33;4.07;;;8.80;99.90;;;;;;5097849;28;20096;-55
2023/04/19 06:39:43;;;;;;;7.15;3.80;;;8.90;99.90;;;;;;5106493;28;20073;-53
2023/04/19 06:42:08;;;;;;;8.43;3.53;;;9.00;99.90;;;;;;5095463;28;20104;-51
2023/04/19 06:44:34;;;;;;;10.30;3.93;;;9.00;99.90;;;;;;5091575;28;20036;-53
2023/04/19 06:46:59;;;;;;;8.43;3.07;;;9.10;99.90;;;;;;5099488;28;20293;-55
2023/04/19 06:49:25;;;;;;;8.07;3.07;;;9.20;99.90;;;;;;5088584;28;20494;-53
2023/04/19 06:51:51;;;;;;;4.97;2.43;;;9.20;99.90;;;;;;5102433;28;20296;-58
2023/04/19 06:54:16;;;;;;;3.80;2.80;;;9.30;99.90;;;;;;5105831;28;20039;-56
2023/04/19 06:56:44;;;;;;;12.43;2.53;;;9.30;99.50;;;;;;5102691;28;20289;-58
2023/04/19 06:59:15;;;;;;;4.93;2.38;;;9.40;99.50;;;;;;5103780;28;20044;-58
2023/04/19 07:01:41;;;;;;;4.28;1.85;;;9.50;99.60;;;;;;5096326;28;20038;-58
2023/04/19 07:04:07;;;;;;;4.00;2.03;;;9.60;98.80;;;;;;5109793;28;20058;-57
2023/04/19 07:06:37;;;;;;;5.78;2.53;;;9.60;98.90;;;;;;5094900;28;20040;-56
2023/04/19 07:09:04;;;;;;;2.70;1.77;;;9.70;98.40;;;;;;5088653;28;20039;-56
2023/04/19 07:11:30;;;;;;;2.03;1.85;;;9.80;98.30;;;;;;5089768;28;20113;-58
2023/04/19 07:13:56;;;;;;;6.03;1.95;;;9.80;98.00;;;;;;5089462;28;20173;-57
2023/04/19 07:16:22;;;;;;;3.55;1.60;;;9.90;98.70;;;;;;5089633;28;20162;-57
2023/04/19 07:18:47;;;;;;;3.08;1.77;;;9.90;98.20;;;;;;5102159;28;20050;-54
2023/04/19 07:21:14;;;;;;;5.07;1.75;;;9.90;98.00;;;;;;5109921;28;20493;-57
2023/04/19 07:23:39;;;;;;;;;;;10.00;97.90;;;;;;5100608;28;20443;-56
2023/04/19 07:26:06;;;;;;;1.90;1.02;;;10.00;97.60;;;;;;5090618;28;19922;-57
2023/04/19 07:28:32;;;;;;;3.88;1.67;;;10.10;97.60;;;;;;5079215;28;20549;-57
2023/04/19 07:30:59;;;;;;;1.55;0.93;;;10.20;97.90;;;;;;5093552;28;20057;-58
2023/04/19 07:33:26;;;;;;;4.15;1.20;;;10.20;97.00;;;;;;5093016;28;20036;-57
2023/04/19 07:35:52;;;;;;;4.68;1.17;;;10.30;96.30;;;;;;5094694;28;20104;-56
2023/04/19 07:38:18;;;;;;;4.97;1.58;;;10.30;96.10;;;;;;5087524;28;20059;-57
2023/04/19 07:40:44;;;;;;;3.00;1.30;;;10.30;95.80;;;;;;5090220;28;20039;-57
2023/04/19 07:43:10;;;;;;;4.75;1.15;;;10.30;96.30;;;;;;5092098;28;20032;-58
2023/04/19 07:45:36;;;;;;;1.45;0.88;;;10.30;96.10;;;;;;5094485;28;20036;-57
2023/04/19 07:48:01;;;;;;;1.37;0.80;;;10.40;95.50;;;;;;5088807;28;20427;-56
2023/04/19 07:50:27;;;;;;;1.20;0.83;;;10.50;95.30;;;;;;5091338;28;20136;-58
2023/04/19 07:52:53;;;;;;;1.42;0.90;;;10.50;95.20;;;;;;5088774;28;20281;-57
2023/04/19 07:55:19;;;;;;;4.53;1.00;;;10.60;95.80;;;;;;5094677;28;20055;-58
2023/04/19 07:57:47;;;;;;;2.17;1.02;;;10.60;95.30;;;;;;5093232;28;20040;-58
2023/04/19 08:00:17;;;;;;;1.30;0.90;;;10.70;94.80;;;;;;5090072;28;20411;-57
2023/04/19 08:02:44;;;;;;;2.78;1.05;;;10.80;94.40;;;;;;5089850;28;20032;-57
2023/04/19 08:05:10;;;;;;;2.85;0.60;;;10.90;94.70;;;;;;5092615;28;20670;-57
2023/04/19 08:07:36;;;;;;;3.22;1.38;;;11.00;94.90;;;;;;5092570;28;20066;-57
2023/04/19 08:10:01;;;;;;;2.13;1.13;;;11.00;94.00;;;;;;5086957;28;21082;-57
2023/04/19 08:12:27;;;;;;;5.15;1.48;;;11.10;93.80;;;;;;5093908;28;20039;-57
2023/04/19 08:14:52;;;;;;;6.43;1.33;;;11.20;92.90;;;;;;5092317;28;20035;-58
2023/04/19 08:17:20;;;;;;;5.20;1.17;;;11.20;93.10;;;;;;5089233;28;20051;-58
2023/04/19 08:19:48;;;;;;;5.03;1.08;;;11.30;92.50;;;;;;5090793;28;20320;-57
2023/04/19 08:22:17;;;;;;;6.18;1.45;;;11.40;92.80;;;;;;5092593;28;20127;-56
2023/04/19 08:24:43;;;;;;;7.90;1.35;;;11.30;91.10;;;;;;5089835;28;20529;-57
2023/04/19 08:27:09;;;;;;;3.92;0.98;;;11.40;92.00;;;;;;5096119;28;20035;-58
2023/04/19 08:29:35;;;;;;;;;;;11.50;91.30;;;;;;5093277;28;20111;-57
2023/04/19 08:32:01;;;;;;;2.08;1.35;;;11.50;91.60;;;;;;5095911;28;20497;-56
2023/04/19 08:34:27;;;;;;;9.23;1.40;;;11.50;92.10;;;;;;5091355;28;20109;-58
2023/04/19 08:36:52;;;;;;;4.35;1.40;;;11.60;92.00;;;;;;5094542;28;20481;-58
2023/04/19 08:39:18;;;;;;;4.38;1.52;;;11.60;91.50;;;;;;5096143;28;20092;-57
2023/04/19 08:41:44;;;;;;;5.33;1.50;;;11.70;91.40;;;;;;5094573;28;20507;-57
2023/04/19 08:44:15;;;;;;;5.38;1.27;;;11.80;91.70;;;;;;5093168;28;20286;-57
2023/04/19 08:46:41;;;;;;;3.95;1.58;;;11.80;90.30;;;;;;5094815;28;20501;-58
2023/04/19 08:49:09;;;;;;;6.15;1.55;;;11.80;90.10;;;;;;5093433;28;20036;-58
2023/04/19 08:51:37;;;;;;;4.18;1.98;;;11.90;90.80;;;;;;5098629;28;20079;-58
2023/04/19 08:54:07;;;;;;;2.70;1.63;;;12.00;89.90;;;;;;5094292;28;20097;-56
2023/04/19 08:56:32;;;;;;;2.55;1.63;;;12.10;87.60;;;;;;5097476;28;20063;-57
2023/04/19 08:58:58;;;;;;;5.22;1.55;;;12.20;87.20;;;;;;5095849;28;20063;-57
2023/04/19 09:01:24;;;;;;;1.92;1.13;;;12.20;86.10;;;;;;5094810;28;20130;-58
2023/04/19 09:03:49;;;;;;;4.00;1.42;;;12.20;84.70;;;;;;5093467;28;20036;-58
2023/04/19 09:06:15;;;;;;;4.32;1.45;;;12.30;85.80;;;;;;5095632;28;20047;-58
2023/04/19 09:08:41;;;;;;;2.50;1.55;;;12.40;87.00;;;;;;5095395;28;20040;-58
2023/04/19 09:11:07;;;;;;;4.88;1.13;;;12.40;85.00;;;;;;5098586;28;20550;-58
2023/04/19 09:13:35;;;;;;;3.35;1.08;;;12.50;83.80;;;;;;5092391;28;20066;-58
2023/04/19 09:16:03;;;;;;;4.68;1.13;;;12.60;77.80;;;;;;5094734;28;20051;-58
2023/04/19 09:18:29;;;;;;;4.35;1.00;;;12.50;77.70;;;;;;5090402;28;20035;-57
2023/04/19 09:20:58;;;;;;;8.43;1.48;;;12.60;78.50;;;;;;5097324;28;20036;-57
2023/04/19 09:23:25;;;;;;;9.35;1.80;;;12.60;78.30;;;;;;5098829;28;20525;-58
2023/04/19 09:26:01;;;;;;;2.05;0.95;;;12.70;80.00;;;;;;5094661;28;20101;-57
2023/04/19 09:28:27;;;;;;;1.90;1.38;;;12.80;79.70;;;;;;5082879;28;20050;-58
2023/04/19 09:30:54;;;;;;;4.65;1.38;;;12.90;78.70;;;;;;5093925;28;20081;-57
2023/04/19 09:33:38;;;;;;;3.85;1.05;;;13.10;78.60;;;;;;5093126;28;20139;-58
2023/04/19 09:36:04;;;;;;;6.57;1.30;;;13.20;78.40;;;;;;5093606;28;20084;-57
2023/04/19 09:38:46;;;;;;;5.65;1.02;;;13.30;77.50;;;;;;5092360;28;20039;-57
2023/04/19 09:41:12;;;;;;;3.75;1.17;;;13.40;77.40;;;;;;5094743;28;20067;-58
2023/04/19 09:43:37;;;;;;;5.45;1.25;;;13.50;77.20;;;;;;5091934;28;20024;-59
2023/04/19 09:46:03;;;;;;;2.80;1.17;;;13.50;77.70;;;;;;5098719;28;20038;-58
2023/04/19 09:48:29;;;;;;;2.72;1.25;;;13.50;74.90;;;;;;5094509;28;20348;-58
2023/04/19 09:50:55;;;;;;;3.40;0.80;;;13.50;76.10;;;;;;5094817;28;20040;-58
2023/04/19 09:53:22;;;;;;;5.15;1.50;;;13.60;76.50;;;;;;5094398;28;20368;-60
2023/04/19 09:55:49;;;;;;;3.05;1.17;;;13.60;78.10;;;;;;5091862;28;20601;-59
2023/04/19 09:58:15;;;;;;;2.72;1.20;;;13.70;76.30;;;;;;5091433;28;20032;-58
2023/04/19 10:00:43;;;;;;;3.42;1.75;;;13.80;77.20;;;;;;5092711;28;20039;-58
2023/04/19 10:03:09;;;;;;;1.27;1.05;;;13.90;75.90;;;;;;5092483;28;20043;-58
2023/04/19 10:05:38;;;;;;;2.03;1.13;;;14.00;75.10;;;;;;5095878;28;20190;-57
2023/04/19 10:08:06;;;;;;;2.83;1.38;;;14.00;75.30;;;;;;5093102;28;20035;-58
2023/04/19 10:10:32;;;;;;;6.63;1.00;;;14.10;74.80;;;;;;5089553;28;20315;-58
2023/04/19 10:12:59;;;;;;;2.40;1.25;;;14.10;74.40;;;;;;5092218;28;20081;-58
2023/04/19 10:15:26;;;;;;;2.38;1.08;;;14.10;73.20;;;;;;5096054;28;20044;-58
2023/04/19 10:17:52;;;;;;;1.17;0.52;;;14.10;74.10;;;;;;5090927;28;20058;-62
2023/04/19 10:20:37;;;;;;;5.57;0.98;;;14.10;72.30;;;;;;5088978;28;20032;-59
2023/04/19 10:23:08;;;;;;;1.23;0.70;;;14.20;71.90;;;;;;5095429;28;20036;-58
2023/04/19 10:25:36;;;;;;;1.83;0.80;;;14.30;72.00;;;;;;5091915;28;20047;-58
2023/04/19 10:28:02;;;;;;;1.92;1.02;;;14.40;72.20;;;;;;5091448;28;20036;-58
2023/04/19 10:30:27;;;;;;;1.60;0.98;;;14.50;70.90;;;;;;5086642;28;20040;-58
2023/04/19 10:32:55;;;;;;;1.92;0.90;;;14.60;69.00;;;;;;5092789;28;20035;-58
2023/04/19 10:35:24;;;;;;;1.55;0.90;;;14.70;68.10;;;;;;5089870;28;20036;-58
2023/04/19 10:38:08;;;;;;;2.47;0.85;;;14.70;67.40;;;;;;5092643;28;20315;-57
2023/04/19 10:41:02;;;;;;;1.70;0.50;;;14.80;68.20;;;;;;5088663;28;20063;-57
2023/04/19 10:43:33;;;;;;;6.85;0.80;;;14.90;64.40;;;;;;5094268;28;20039;-57
2023/04/19 10:46:34;;;;;;;6.13;0.80;;;15.00;64.80;;;;;;5096168;28;20081;-57
2023/04/19 10:49:02;;;;;;;2.08;0.63;;;15.00;65.70;;;;;;5095348;28;20040;-58
2023/04/19 10:51:36;;;;;;;3.42;0.63;;;15.10;66.10;;;;;;5093572;28;20104;-58
2023/04/19 10:54:03;;;;;;;1.20;0.60;;;15.20;64.30;;;;;;5089993;28;20035;-58
2023/04/19 10:56:32;;;;;;;3.03;0.68;;;15.20;64.90;;;;;;5090160;28;20409;-58
2023/04/19 10:59:01;;;;;;;4.10;0.77;;;15.30;65.10;;;;;;5092414;28;20363;-57
2023/04/19 11:01:43;;;;;;;1.75;0.75;;;15.30;62.90;;;;;;5093185;28;20063;-58
2023/04/19 11:04:14;;;;;;;4.22;0.98;;;15.20;62.00;;;;;;5092896;28;20533;-58
2023/04/19 11:06:51;;;;;;;2.50;0.68;;;15.20;63.70;;;;;;5093217;28;20336;-58
2023/04/19 11:09:27;;;;;;;0.90;0.40;;;15.30;64.10;;;;;;5088893;28;20032;-58
2023/04/19 11:11:56;;;;;;;6.63;1.25;;;15.40;61.90;;;;;;5090248;28;20054;-59
2023/04/19 11:14:23;;;;;;;5.78;0.65;;;15.40;60.90;;;;;;5090071;28;20493;-58
2023/04/19 11:16:49;;;;;;;1.92;0.60;;;15.40;60.60;;;;;;5089589;28;20047;-58
2023/04/19 11:19:18;;;;;;;6.70;0.70;;;15.50;60.40;;;;;;5088184;28;20112;-58
2023/04/19 11:21:48;;;;;;;3.95;0.80;;;15.50;61.70;;;;;;5091935;28;20074;-58
2023/04/19 11:24:17;;;;;;;3.30;0.93;;;15.60;62.00;;;;;;5092486;28;20444;-58
2023/04/19 11:26:44;;;;;;;5.10;0.75;;;15.60;62.20;;;;;;5089965;28;20054;-57
2023/04/19 11:29:10;;;;;;;3.65;0.80;;;15.70;61.20;;;;;;5090576;28;20047;-59
2023/04/19 11:31:36;;;;;;;4.35;1.20;;;15.70;60.90;;;;;;5091637;28;20040;-58
2023/04/19 11:34:02;;;;;;;4.22;0.65;;;15.80;61.70;;;;;;5091139;28;20044;-58
2023/04/19 11:36:28;;;;;;;2.60;0.50;;;15.80;61.80;;;;;;5092140;28;20503;-58
2023/04/19 11:38:53;;;;;;;3.30;0.68;;;15.80;63.00;;;;;;5089088;28;20233;-59
2023/04/19 11:41:19;;;;;;;7.68;0.57;;;15.80;61.70;;;;;;5089752;28;20037;-58
2023/04/19 11:43:45;;;;;;;2.92;0.80;;;15.70;61.00;;;;;;5091342;28;20043;-57
2023/04/19 11:46:12;;;;;;;;;;;15.70;60.40;;;;;;5089785;28;20051;-58
2023/04/19 11:48:39;;;;;;;2.53;0.60;;;15.70;60.30;;;;;;5088460;28;20411;-59
2023/04/19 11:51:05;;;;;;;1.73;0.68;;;15.60;61.60;;;;;;5092231;28;20043;-58
2023/04/19 11:53:31;;;;;;;2.55;0.60;;;15.70;61.90;;;;;;5095029;28;20039;-58
2023/04/19 11:56:04;;;;;;;3.38;0.70;;;15.70;61.40;;;;;;5092985;28;20036;-57
2023/04/19 11:58:34;;;;;;;2.00;0.80;;;15.80;61.60;;;;;;5091701;28;20035;-58
2023/04/19 12:01:06;;;;;;;2.55;0.88;;;15.90;61.50;;;;;;5092275;28;20032;-57
2023/04/19 12:03:33;;;;;;;5.80;0.80;;;15.80;61.20;;;;;;5095799;28;20503;-58
2023/04/19 12:06:07;;;;;;;8.15;1.08;;;15.90;62.10;;;;;;5095880;28;20421;-58
2023/04/19 12:08:35;;;;;;;3.17;0.75;;;16.00;62.60;;;;;;5093662;28;20139;-57
2023/04/19 12:11:02;;;;;;;2.97;1.02;;;16.10;62.70;;;;;;5094570;28;20044;-58
2023/04/19 12:13:29;;;;;;;4.00;1.55;;;16.10;62.50;;;;;;5096319;28;20161;-58
2023/04/19 12:15:55;;;;;;;5.07;1.15;;;16.10;62.50;;;;;;5093527;28;20115;-58
2023/04/19 12:18:21;;;;;;;;;;;16.00;62.20;;;;;;5092488;28;20036;-58
2023/04/19 12:20:48;;;;;;;1.92;1.10;;;16.10;64.70;;;;;;5094738;28;20194;-58
2023/04/19 12:23:15;;;;;;;3.42;1.00;;;16.20;63.20;;;;;;5095591;28;20040;-58
2023/04/19 12:25:42;;;;;;;9.98;1.33;;;16.20;63.20;;;;;;5095806;28;20412;-57
2023/04/19 12:28:08;;;;;;;4.35;1.25;;;16.20;63.40;;;;;;5095584;28;20035;-58
2023/04/19 12:30:37;;;;;;;2.75;1.13;;;16.20;63.10;;;;;;5097138;28;20428;-58
2023/04/19 12:33:03;;;;;;;2.42;1.25;;;16.20;63.10;;;;;;5097384;28;20055;-58
2023/04/19 12:35:29;;;;;;;1.70;1.33;;;16.30;64.40;;;;;;5092418;28;20032;-58
2023/04/19 12:37:57;;;;;;;3.58;1.73;;;16.40;63.40;;;;;;5086901;28;20410;-58
2023/04/19 12:40:23;;;;;;;2.10;1.40;;;16.40;64.00;;;;;;5088490;28;20113;-58
2023/04/19 12:42:49;;;;;;;5.07;1.50;;;16.40;63.40;;;;;;5093292;28;20124;-60
2023/04/19 12:45:16;;;;;;;2.50;0.82;;;16.50;63.50;;;;;;5092585;28;20036;-58
2023/04/19 12:47:43;;;;;;;2.70;1.48;;;16.50;63.70;;;;;;5104172;28;20043;-58